Time;durP1;ratioP1;P1;durP2;ratioP2;P2;SDS_P1;SDS_P2;PMS_P1;PMS_P2;Temp;Humidity;BMP_temperature;BMP_pressure;BME280_temperature;BME280_humidity;BME280_pressure;Samples;Min_cycle;Max_cycle;Signal;HPM_P1;HPM_P2
2021/08/07 00:00:04;;;;;;;4.00;3.60;;;;;23.30;99419.00;;;;2056208;28;20298;-56
2021/08/07 00:01:05;;;;;;;8.20;3.50;;;;;23.30;99422.00;;;;2052476;28;20234;-55
2021/08/07 00:02:05;;;;;;;3.90;3.53;;;;;23.30;99422.00;;;;2058889;28;20212;-55
2021/08/07 00:03:06;;;;;;;3.50;3.20;;;;;23.30;99425.00;;;;2057864;28;20962;-55
2021/08/07 00:04:06;;;;;;;3.57;3.23;;;;;23.30;99427.00;;;;2054775;28;20220;-55
2021/08/07 00:05:07;;;;;;;4.30;3.30;;;;;23.30;99430.00;;;;2058616;28;20242;-56
2021/08/07 00:06:07;;;;;;;3.90;3.30;;;;;23.30;99430.00;;;;2061802;28;20683;-56
2021/08/07 00:07:07;;;;;;;4.80;3.13;;;;;23.30;99429.00;;;;2063697;28;21430;-56
2021/08/07 00:08:08;;;;;;;3.93;3.20;;;;;23.30;99432.00;;;;2061616;28;20302;-56
2021/08/07 00:09:08;;;;;;;4.90;3.67;;;;;23.30;99433.00;;;;2057212;28;20219;-55
2021/08/07 00:10:09;;;;;;;3.63;3.30;;;;;23.30;99429.00;;;;2055063;28;20223;-57
2021/08/07 00:11:10;;;;;;;4.00;3.10;;;;;23.30;99428.00;;;;2058065;28;20227;-57
2021/08/07 00:12:10;;;;;;;4.70;3.40;;;;;23.30;99425.00;;;;2057214;28;20249;-55
2021/08/07 00:13:10;;;;;;;3.73;3.30;;;;;23.30;99428.00;;;;2065990;28;20993;-55
2021/08/07 00:14:11;;;;;;;4.40;3.30;;;;;23.30;99423.00;;;;2054926;28;20755;-56
2021/08/07 00:15:11;;;;;;;3.47;3.07;;;;;23.30;99426.00;;;;2054148;28;20230;-57
2021/08/07 00:16:11;;;;;;;4.03;3.10;;;;;23.30;99422.00;;;;2057997;28;20223;-56
2021/08/07 00:17:12;;;;;;;4.30;3.73;;;;;23.30;99423.00;;;;2058123;28;21268;-56
2021/08/07 00:18:12;;;;;;;3.37;3.07;;;;;23.30;99425.00;;;;2055574;28;20760;-56
2021/08/07 00:19:12;;;;;;;3.90;2.73;;;;;23.30;99425.00;;;;2054909;28;20294;-55
2021/08/07 00:20:13;;;;;;;3.40;3.10;;;;;23.30;99387.00;;;;2057653;28;20302;-57
2021/08/07 00:21:13;;;;;;;4.27;3.30;;;;;23.30;99419.00;;;;2057660;28;20215;-55
2021/08/07 00:22:15;;;;;;;3.80;3.00;;;;;23.30;99427.00;;;;2062029;28;20299;-56
2021/08/07 00:23:15;;;;;;;4.05;2.90;;;;;23.30;99420.00;;;;2053272;28;20269;-55
2021/08/07 00:24:16;;;;;;;4.90;3.07;;;;;23.30;99422.00;;;;2056228;28;20633;-56
2021/08/07 00:25:16;;;;;;;4.40;3.27;;;;;23.30;99421.00;;;;2065506;28;20218;-55
2021/08/07 00:26:17;;;;;;;3.10;2.80;;;;;23.30;99416.00;;;;2065349;28;20317;-56
2021/08/07 00:27:17;;;;;;;3.27;2.97;;;;;23.30;99419.00;;;;2055998;28;20218;-55
2021/08/07 00:28:17;;;;;;;3.57;2.57;;;;;23.30;99419.00;;;;2058665;28;20218;-56
2021/08/07 00:29:18;;;;;;;3.20;2.80;;;;;23.30;99416.00;;;;2057333;28;20215;-55
2021/08/07 00:30:18;;;;;;;3.70;3.23;;;;;23.30;99411.00;;;;2057713;28;21604;-57
2021/08/07 00:31:19;;;;;;;2.37;2.17;;;;;23.30;99415.00;;;;2057644;28;21682;-59
2021/08/07 00:32:19;;;;;;;3.70;2.67;;;;;23.30;99411.00;;;;2054397;28;20218;-56
2021/08/07 00:33:19;;;;;;;3.20;2.70;;;;;23.30;99410.00;;;;2057830;28;20579;-58
2021/08/07 00:34:20;;;;;;;2.93;2.63;;;;;23.30;99409.00;;;;2054777;28;20409;-55
2021/08/07 00:35:20;;;;;;;3.23;2.43;;;;;23.30;99405.00;;;;2056788;28;20223;-57
2021/08/07 00:36:20;;;;;;;3.90;2.77;;;;;23.30;99404.00;;;;2054244;28;20584;-57
2021/08/07 00:37:21;;;;;;;3.00;2.63;;;;;23.30;99401.00;;;;2056119;28;20290;-56
2021/08/07 00:38:21;;;;;;;2.50;2.30;;;;;23.30;99408.00;;;;2058328;28;20285;-56
2021/08/07 00:39:21;;;;;;;2.80;2.50;;;;;23.30;99408.00;;;;2054729;28;20306;-55
2021/08/07 00:40:22;;;;;;;3.70;2.77;;;;;23.30;99402.00;;;;2057446;28;20215;-57
2021/08/07 00:41:22;;;;;;;2.63;2.43;;;;;23.30;99401.00;;;;2054636;28;20223;-56
2021/08/07 00:42:23;;;;;;;2.40;2.10;;;;;23.30;99407.00;;;;2059016;28;20214;-56
2021/08/07 00:43:23;;;;;;;2.93;2.63;;;;;23.30;99407.00;;;;2063012;28;20234;-55
2021/08/07 00:44:23;;;;;;;2.50;2.30;;;;;23.30;99404.00;;;;2069881;28;20702;-57
2021/08/07 00:45:24;;;;;;;2.77;2.50;;;;;23.30;99404.00;;;;2062852;28;20211;-56
2021/08/07 00:46:25;;;;;;;2.57;2.37;;;;;23.30;99402.00;;;;2070001;28;20264;-55
2021/08/07 00:47:25;;;;;;;3.20;2.50;;;;;23.30;99407.00;;;;2070152;28;20503;-55
2021/08/07 00:48:26;;;;;;;3.00;2.50;;;;;23.30;99404.00;;;;2065799;28;20210;-56
2021/08/07 00:49:27;;;;;;;3.20;2.53;;;;;23.30;99405.00;;;;2062691;28;20269;-55
2021/08/07 00:50:27;;;;;;;3.20;2.40;;;;;23.30;99407.00;;;;2057396;28;20242;-57
2021/08/07 00:51:27;;;;;;;2.70;2.07;;;;;23.30;99391.00;;;;2054760;28;20212;-56
2021/08/07 00:52:28;;;;;;;2.50;2.03;;;;;23.30;99400.00;;;;2062105;28;20210;-57
2021/08/07 00:53:28;;;;;;;3.07;2.40;;;;;23.30;99396.00;;;;2057839;28;20222;-57
2021/08/07 00:54:29;;;;;;;2.30;2.10;;;;;23.30;99403.00;;;;2058514;28;20222;-57
2021/08/07 00:55:29;;;;;;;3.40;2.30;;;;;23.30;99407.00;;;;2057653;28;20219;-55
2021/08/07 00:56:30;;;;;;;2.13;1.93;;;;;23.30;99397.00;;;;2059152;28;20237;-56
2021/08/07 00:57:30;;;;;;;2.30;2.10;;;;;23.30;99398.00;;;;2060705;28;20218;-55
2021/08/07 00:58:31;;;;;;;2.50;2.00;;;;;23.30;99393.00;;;;2054681;28;20211;-55
2021/08/07 00:59:31;;;;;;;2.30;2.10;;;;;23.30;99389.00;;;;2058639;28;20322;-55
2021/08/07 01:00:32;;;;;;;2.40;2.20;;;;;23.30;99390.00;;;;2054107;28;20228;-55
2021/08/07 01:01:39;;;;;;;2.97;1.85;;;;;23.30;99391.00;;;;2052498;28;20257;-57
2021/08/07 01:02:42;;;;;;;2.22;2.03;;;;;23.30;99390.00;;;;2075160;28;20299;-56
2021/08/07 01:03:47;;;;;;;3.65;2.65;;;;;23.20;99387.00;;;;2065859;28;20225;-55
2021/08/07 01:05:21;;;;;;;2.47;2.10;;;;;23.30;99398.00;;;;2065796;28;20726;-55
2021/08/07 01:06:43;;;;;;;2.20;1.88;;;;;23.30;99399.00;;;;2039565;29;20228;-56
2021/08/07 01:08:05;;;;;;;2.60;2.03;;;;;23.30;99397.00;;;;2063198;28;20253;-57
2021/08/07 01:09:24;;;;;;;2.20;1.90;;;;;23.30;99388.00;;;;2068572;28;20277;-55
2021/08/07 01:10:29;;;;;;;2.60;1.95;;;;;23.30;99382.00;;;;2065571;28;20212;-55
2021/08/07 01:11:39;;;;;;;3.10;1.80;;;;;23.30;99382.00;;;;2062191;28;20795;-57
2021/08/07 01:13:08;;;;;;;2.53;1.90;;;;;23.30;99378.00;;;;2063880;28;20222;-55
2021/08/07 01:14:08;;;;;;;2.95;2.10;;;;;23.20;99381.00;;;;2068746;28;20214;-57
2021/08/07 01:15:09;;;;;;;2.60;2.20;;;;;23.30;99379.00;;;;2069625;28;20218;-56
2021/08/07 01:16:11;;;;;;;2.00;1.80;;;;;23.30;99376.00;;;;2069554;28;20218;-55
2021/08/07 01:17:13;;;;;;;2.30;1.83;;;;;23.30;99376.00;;;;2068928;28;20738;-55
2021/08/07 01:18:15;;;;;;;2.13;1.67;;;;;23.30;99377.00;;;;2068658;28;20793;-56
2021/08/07 01:19:18;;;;;;;2.35;1.75;;;;;23.30;99379.00;;;;2067643;28;20789;-57
2021/08/07 01:20:33;;;;;;;1.70;1.60;;;;;23.30;99371.00;;;;2065771;28;20269;-55
2021/08/07 01:21:35;;;;;;;2.75;1.90;;;;;23.30;99373.00;;;;2075328;28;20297;-57
2021/08/07 01:22:41;;;;;;;1.95;1.75;;;;;23.30;99374.00;;;;2060037;28;20655;-56
2021/08/07 01:23:53;;;;;;;2.05;1.85;;;;;23.30;99372.00;;;;2053796;28;20227;-55
2021/08/07 01:25:03;;;;;;;3.25;1.65;;;;;23.20;99375.00;;;;2057159;28;20301;-56
2021/08/07 01:26:22;;;;;;;2.00;1.55;;;;;23.30;99363.00;;;;2057967;28;20211;-55
2021/08/07 01:27:24;;;;;;;3.00;2.00;;;;;23.30;99371.00;;;;2061642;28;20726;-56
2021/08/07 01:28:25;;;;;;;2.20;1.80;;;;;23.30;99378.00;;;;2061023;28;20211;-56
2021/08/07 01:29:26;;;;;;;1.80;1.60;;;;;23.20;99368.00;;;;2071569;28;20584;-56
2021/08/07 01:30:27;;;;;;;2.13;1.92;;;;;23.30;99375.00;;;;2062783;28;20225;-55
2021/08/07 01:31:27;;;;;;;2.20;1.50;;;;;23.30;99367.00;;;;2055403;28;20223;-59
2021/08/07 01:32:31;;;;;;;1.97;1.43;;;;;23.20;99373.00;;;;2079420;28;20578;-58
2021/08/07 01:33:31;;;;;;;2.33;1.85;;;;;23.30;99362.00;;;;2067695;28;20256;-55
2021/08/07 01:34:32;;;;;;;2.20;1.90;;;;;23.30;99361.00;;;;2071153;28;20213;-56
2021/08/07 01:35:32;;;;;;;2.57;1.80;;;;;23.30;99365.00;;;;2071391;28;20214;-55
2021/08/07 01:36:34;;;;;;;1.67;1.37;;;;;23.20;99373.00;;;;2071315;28;20457;-57
2021/08/07 01:37:35;;;;;;;2.00;1.23;;;;;23.20;99357.00;;;;2071057;28;20210;-55
2021/08/07 01:38:36;;;;;;;2.03;1.57;;;;;23.20;99367.00;;;;2068518;28;20235;-57
2021/08/07 01:39:42;;;;;;;1.73;1.50;;;;;23.20;99378.00;;;;2063306;28;20242;-55
2021/08/07 01:40:42;;;;;;;1.88;1.30;;;;;23.20;99375.00;;;;2068358;28;20242;-56
2021/08/07 01:41:43;;;;;;;2.40;1.70;;;;;23.20;99367.00;;;;2070378;28;20268;-56
2021/08/07 01:42:44;;;;;;;1.70;1.50;;;;;23.20;99376.00;;;;2071494;28;20237;-56
2021/08/07 01:43:44;;;;;;;1.90;1.33;;;;;23.20;99372.00;;;;2071830;28;20217;-57
2021/08/07 01:44:45;;;;;;;2.00;1.80;;;;;23.20;99372.00;;;;2071891;28;20217;-56
2021/08/07 01:45:46;;;;;;;3.03;2.07;;;;;23.20;99372.00;;;;2071527;28;20211;-56
2021/08/07 01:47:02;;;;;;;2.87;1.93;;;;;23.20;99376.00;;;;2071762;28;20218;-56
2021/08/07 01:48:06;;;;;;;2.65;1.55;;;;;23.20;99375.00;;;;2079064;28;20460;-55
2021/08/07 01:49:14;;;;;;;1.77;1.45;;;;;23.20;99338.00;;;;2071143;28;20222;-57
2021/08/07 01:50:30;;;;;;;2.00;1.60;;;;;23.20;99383.00;;;;2064933;28;20229;-56
2021/08/07 01:52:00;;;;;;;1.70;1.50;;;;;23.20;99379.00;;;;2071640;28;20232;-56
2021/08/07 01:53:03;;;;;;;1.77;1.50;;;;;23.20;99382.00;;;;2065401;28;20707;-59
2021/08/07 01:54:03;;;;;;;1.60;1.48;;;;;23.20;99378.00;;;;2062923;28;20592;-55
2021/08/07 01:55:07;;;;;;;1.83;1.57;;;;;23.20;99379.00;;;;2065386;28;20238;-56
2021/08/07 01:56:22;;;;;;;2.05;1.45;;;;;23.20;99382.00;;;;2063765;28;20606;-56
2021/08/07 01:57:23;;;;;;;1.65;1.27;;;;;23.20;99391.00;;;;2066921;28;20341;-57
2021/08/07 01:58:26;;;;;;;2.03;1.50;;;;;23.20;99374.00;;;;2063040;28;20310;-56
2021/08/07 01:59:26;;;;;;;1.85;1.73;;;;;23.20;99378.00;;;;2058821;28;20363;-57
2021/08/07 02:00:26;;;;;;;1.70;1.43;;;;;23.20;99380.00;;;;2056526;28;20227;-55
2021/08/07 02:01:27;;;;;;;3.43;1.40;;;;;23.20;99371.00;;;;2062518;28;20218;-56
2021/08/07 02:02:28;;;;;;;1.53;1.40;;;;;23.20;99379.00;;;;2064383;28;20222;-56
2021/08/07 02:03:28;;;;;;;2.33;1.53;;;;;23.20;99367.00;;;;2070539;28;20636;-56
2021/08/07 02:04:29;;;;;;;2.10;1.67;;;;;23.20;99364.00;;;;2070621;28;20488;-57
2021/08/07 02:05:29;;;;;;;1.60;1.23;;;;;23.20;99369.00;;;;2070456;28;20377;-56
2021/08/07 02:06:30;;;;;;;1.77;1.57;;;;;23.20;99368.00;;;;2063556;28;20711;-57
2021/08/07 02:07:30;;;;;;;1.27;1.17;;;;;23.20;99377.00;;;;2069958;28;20214;-56
2021/08/07 02:08:31;;;;;;;2.53;1.50;;;;;23.20;99389.00;;;;2062550;28;20219;-56
2021/08/07 02:09:31;;;;;;;1.40;1.30;;;;;23.20;99380.00;;;;2070584;28;20242;-57
2021/08/07 02:10:31;;;;;;;1.50;1.20;;;;;23.20;99375.00;;;;2071586;28;20636;-56
2021/08/07 02:11:32;;;;;;;1.80;1.57;;;;;23.20;99377.00;;;;2053491;28;20772;-56
2021/08/07 02:12:32;;;;;;;1.60;1.37;;;;;23.20;99373.00;;;;2066848;28;20572;-56
2021/08/07 02:13:33;;;;;;;1.63;1.30;;;;;23.20;99380.00;;;;2062410;28;20217;-57
2021/08/07 02:14:35;;;;;;;2.07;1.33;;;;;23.20;99377.00;;;;2045712;28;20303;-56
2021/08/07 02:15:35;;;;;;;1.35;1.23;;;;;23.20;99356.00;;;;2061441;28;20210;-59
2021/08/07 02:16:38;;;;;;;2.43;1.20;;;;;23.10;99372.00;;;;2062997;28;20692;-55
2021/08/07 02:17:40;;;;;;;1.90;1.50;;;;;23.20;99368.00;;;;2055170;28;20208;-56
2021/08/07 02:18:41;;;;;;;1.45;1.35;;;;;23.20;99382.00;;;;2058823;28;20224;-55
2021/08/07 02:19:41;;;;;;;2.00;1.30;;;;;23.20;99372.00;;;;2052466;28;20231;-55
2021/08/07 02:20:41;;;;;;;2.37;1.17;;;;;23.20;99373.00;;;;2049298;28;20221;-55
2021/08/07 02:21:42;;;;;;;1.50;1.30;;;;;23.20;99373.00;;;;2047551;28;20315;-55
2021/08/07 02:22:44;;;;;;;1.20;1.10;;;;;23.20;99376.00;;;;2052236;28;20268;-55
2021/08/07 02:23:47;;;;;;;1.30;1.13;;;;;23.20;99383.00;;;;2059854;28;20206;-56
2021/08/07 02:24:48;;;;;;;1.50;1.10;;;;;23.20;99375.00;;;;2057177;28;20300;-56
2021/08/07 02:25:54;;;;;;;1.60;1.13;;;;;23.20;99381.00;;;;2064541;28;20311;-56
2021/08/07 02:26:55;;;;;;;1.60;1.30;;;;;23.20;99377.00;;;;2060780;28;20257;-56
2021/08/07 02:27:55;;;;;;;1.37;1.17;;;;;23.20;99373.00;;;;2056555;28;20223;-56
2021/08/07 02:28:56;;;;;;;1.30;1.10;;;;;23.20;99383.00;;;;2054855;28;20514;-55
2021/08/07 02:29:56;;;;;;;1.60;1.50;;;;;23.20;99381.00;;;;2054774;28;20623;-55
2021/08/07 02:31:00;;;;;;;2.50;1.30;;;;;23.20;99389.00;;;;2055089;28;20223;-56
2021/08/07 02:32:00;;;;;;;1.63;1.20;;;;;23.20;99394.00;;;;2054517;28;20216;-56
2021/08/07 02:33:01;;;;;;;1.50;1.40;;;;;23.20;99379.00;;;;2046821;28;20216;-55
2021/08/07 02:34:01;;;;;;;1.73;1.13;;;;;23.20;99375.00;;;;2057774;28;20218;-58
2021/08/07 02:35:02;;;;;;;2.40;1.60;;;;;23.20;99371.00;;;;2054635;28;20227;-57
2021/08/07 02:36:03;;;;;;;2.00;1.30;;;;;23.20;99373.00;;;;2062805;28;20751;-56
2021/08/07 02:37:03;;;;;;;2.57;1.60;;;;;23.20;99367.00;;;;2062414;28;20588;-56
2021/08/07 02:38:04;;;;;;;1.60;1.30;;;;;23.20;99374.00;;;;2062179;28;20728;-56
2021/08/07 02:39:04;;;;;;;1.47;1.00;;;;;23.20;99372.00;;;;2062809;28;20217;-54
2021/08/07 02:40:07;;;;;;;1.40;1.00;;;;;23.20;99376.00;;;;2062013;28;20221;-55
2021/08/07 02:41:07;;;;;;;1.00;0.90;;;;;23.20;99372.00;;;;2053733;28;20244;-56
2021/08/07 02:42:07;;;;;;;3.07;1.10;;;;;23.20;99369.00;;;;2054694;28;20948;-56
2021/08/07 02:43:08;;;;;;;1.47;0.90;;;;;23.20;99373.00;;;;2054029;28;20218;-58
2021/08/07 02:44:08;;;;;;;1.83;1.27;;;;;23.20;99366.00;;;;2062957;28;20210;-57
2021/08/07 02:45:09;;;;;;;1.40;1.13;;;;;23.20;99364.00;;;;2064196;28;20563;-59
2021/08/07 02:46:10;;;;;;;1.83;1.07;;;;;23.20;99365.00;;;;2062248;28;20217;-56
2021/08/07 02:47:10;;;;;;;2.50;1.50;;;;;23.20;99358.00;;;;2070296;28;20225;-56
2021/08/07 02:48:11;;;;;;;1.20;1.10;;;;;23.20;99363.00;;;;2069661;28;20221;-56
2021/08/07 02:49:11;;;;;;;1.73;1.30;;;;;23.20;99366.00;;;;2070110;28;20214;-55
2021/08/07 02:50:12;;;;;;;1.10;0.90;;;;;23.20;99360.00;;;;2066244;28;20628;-55
2021/08/07 02:51:12;;;;;;;3.00;1.10;;;;;23.20;99365.00;;;;2066364;28;20215;-55
2021/08/07 02:52:13;;;;;;;1.30;1.20;;;;;23.00;99351.00;;;;2062044;28;20214;-56
2021/08/07 02:53:13;;;;;;;2.30;1.10;;;;;23.20;99353.00;;;;2047870;28;20216;-57
2021/08/07 02:54:14;;;;;;;1.90;1.10;;;;;23.20;99352.00;;;;2059776;28;20234;-57
2021/08/07 02:55:14;;;;;;;1.30;1.10;;;;;23.20;99349.00;;;;2070969;28;20217;-57
2021/08/07 02:56:14;;;;;;;1.27;1.13;;;;;23.20;99355.00;;;;2065663;28;20203;-55
2021/08/07 02:57:15;;;;;;;1.20;0.93;;;;;23.20;99351.00;;;;2059698;28;21726;-57
2021/08/07 02:58:15;;;;;;;2.70;1.30;;;;;23.20;99361.00;;;;2061922;28;20207;-56
2021/08/07 02:59:16;;;;;;;1.50;1.10;;;;;23.20;99357.00;;;;2057325;28;20659;-55
2021/08/07 03:00:16;;;;;;;1.30;1.20;;;;;23.20;99359.00;;;;2056521;28;20216;-55
2021/08/07 03:01:16;;;;;;;1.07;0.97;;;;;23.20;99354.00;;;;2069747;28;20210;-55
2021/08/07 03:02:17;;;;;;;1.50;1.17;;;;;23.20;99353.00;;;;2057764;28;20219;-55
2021/08/07 03:03:17;;;;;;;1.30;1.20;;;;;23.20;99365.00;;;;2055501;28;20223;-57
2021/08/07 03:04:17;;;;;;;1.20;1.10;;;;;23.20;99358.00;;;;2066916;28;20211;-55
2021/08/07 03:05:20;;;;;;;1.67;0.80;;;;;23.20;99351.00;;;;2065771;28;20277;-55
2021/08/07 03:06:23;;;;;;;1.20;1.10;;;;;23.20;99358.00;;;;2066911;28;20211;-55
2021/08/07 03:07:23;;;;;;;1.30;1.20;;;;;23.20;99349.00;;;;2056508;28;20254;-57
2021/08/07 03:08:23;;;;;;;1.70;1.40;;;;;23.20;99354.00;;;;2059501;28;20253;-57
2021/08/07 03:09:24;;;;;;;2.03;1.23;;;;;23.20;99351.00;;;;2061911;28;20206;-55
2021/08/07 03:10:24;;;;;;;3.10;1.13;;;;;23.20;99350.00;;;;2064155;28;20758;-56
2021/08/07 03:11:25;;;;;;;1.20;1.10;;;;;23.20;99359.00;;;;2067041;28;20596;-56
2021/08/07 03:12:26;;;;;;;1.50;1.30;;;;;23.20;99358.00;;;;2063516;28;20815;-57
2021/08/07 03:13:26;;;;;;;1.57;1.10;;;;;23.20;99349.00;;;;2069556;28;20218;-55
2021/08/07 03:14:26;;;;;;;1.30;1.20;;;;;23.20;99343.00;;;;2064917;28;20306;-56
2021/08/07 03:15:27;;;;;;;1.53;0.90;;;;;23.20;99345.00;;;;2066225;28;20233;-55
2021/08/07 03:16:28;;;;;;;1.40;1.20;;;;;23.20;99349.00;;;;2064584;28;20210;-57
2021/08/07 03:17:28;;;;;;;1.50;1.07;;;;;23.20;99340.00;;;;2069636;28;20218;-57
2021/08/07 03:18:29;;;;;;;1.83;1.00;;;;;23.20;99346.00;;;;2070048;28;20472;-57
2021/08/07 03:19:29;;;;;;;1.93;0.97;;;;;23.20;99353.00;;;;2064699;28;20738;-56
2021/08/07 03:20:33;;;;;;;1.13;1.00;;;;;23.20;99349.00;;;;2065949;28;20217;-56
2021/08/07 03:21:33;;;;;;;1.45;0.95;;;;;23.20;99344.00;;;;2060190;28;20301;-55
2021/08/07 03:22:34;;;;;;;1.60;0.77;;;;;23.20;99344.00;;;;2056986;28;20216;-57
2021/08/07 03:23:34;;;;;;;1.17;1.00;;;;;23.10;99346.00;;;;2055906;28;20995;-56
2021/08/07 03:24:35;;;;;;;1.10;0.90;;;;;23.20;99345.00;;;;2065197;28;20253;-56
2021/08/07 03:25:35;;;;;;;0.97;0.90;;;;;23.20;99336.00;;;;2056728;28;20223;-56
2021/08/07 03:26:36;;;;;;;1.30;1.00;;;;;23.20;99341.00;;;;2055005;28;20267;-56
2021/08/07 03:27:36;;;;;;;1.67;1.00;;;;;23.20;99342.00;;;;2065114;28;20306;-56
2021/08/07 03:28:37;;;;;;;1.03;0.93;;;;;23.20;99343.00;;;;2056310;28;20215;-56
2021/08/07 03:29:37;;;;;;;1.37;1.17;;;;;23.10;99341.00;;;;2054920;28;20215;-55
2021/08/07 03:30:38;;;;;;;1.10;0.90;;;;;23.10;99336.00;;;;2058198;28;20207;-56
2021/08/07 03:31:38;;;;;;;1.30;1.10;;;;;23.20;99343.00;;;;2062566;28;20215;-56
2021/08/07 03:32:38;;;;;;;1.43;1.07;;;;;23.20;99341.00;;;;2063101;28;20285;-55
2021/08/07 03:33:39;;;;;;;1.27;1.10;;;;;23.20;99339.00;;;;2058548;28;20208;-55
2021/08/07 03:34:40;;;;;;;1.20;0.90;;;;;23.20;99346.00;;;;2062193;28;20215;-55
2021/08/07 03:35:40;;;;;;;3.00;1.00;;;;;23.20;99339.00;;;;2062478;28;20450;-56
2021/08/07 03:36:42;;;;;;;1.00;0.90;;;;;23.20;99344.00;;;;2059850;28;21006;-56
2021/08/07 03:37:43;;;;;;;1.30;0.80;;;;;23.20;99342.00;;;;2062702;28;20214;-56
2021/08/07 03:38:43;;;;;;;1.80;1.37;;;;;23.10;99348.00;;;;2062807;28;20230;-55
2021/08/07 03:39:44;;;;;;;1.33;0.90;;;;;23.20;99345.00;;;;2061380;28;20417;-56
2021/08/07 03:40:44;;;;;;;1.43;0.90;;;;;23.20;99336.00;;;;2054509;28;20223;-56
2021/08/07 03:41:47;;;;;;;1.30;1.17;;;;;23.10;99343.00;;;;2056482;28;20669;-55
2021/08/07 03:42:47;;;;;;;1.73;0.90;;;;;23.10;99337.00;;;;2061846;28;20457;-55
2021/08/07 03:43:48;;;;;;;1.20;1.00;;;;;23.20;99338.00;;;;2061783;28;20218;-55
2021/08/07 03:44:48;;;;;;;1.30;0.90;;;;;23.20;99338.00;;;;2066117;28;20226;-58
2021/08/07 03:45:49;;;;;;;1.00;0.97;;;;;23.20;99337.00;;;;2060295;28;20539;-57
2021/08/07 03:46:49;;;;;;;1.97;1.30;;;;;23.20;99340.00;;;;2061352;28;20222;-58
2021/08/07 03:47:51;;;;;;;1.40;1.03;;;;;23.20;99340.00;;;;2066374;28;20218;-57
2021/08/07 03:48:51;;;;;;;1.02;0.90;;;;;23.20;99332.00;;;;2063162;28;20269;-55
2021/08/07 03:49:52;;;;;;;1.00;0.90;;;;;23.20;99332.00;;;;2066517;28;20290;-55
2021/08/07 03:50:52;;;;;;;1.33;0.90;;;;;23.10;99330.00;;;;2066604;28;20213;-55
2021/08/07 03:51:52;;;;;;;0.90;0.83;;;;;23.20;99339.00;;;;2062846;28;20245;-55
2021/08/07 03:52:53;;;;;;;1.00;0.77;;;;;23.20;99332.00;;;;2066365;28;20782;-57
2021/08/07 03:53:53;;;;;;;1.10;1.00;;;;;23.10;99328.00;;;;2065288;28;20571;-57
2021/08/07 03:54:53;;;;;;;1.20;1.10;;;;;23.10;99331.00;;;;2055759;28;20215;-55
2021/08/07 03:55:54;;;;;;;1.80;1.00;;;;;23.20;99330.00;;;;2059648;28;20334;-56
2021/08/07 03:56:54;;;;;;;2.20;0.80;;;;;23.20;99333.00;;;;2056060;28;20220;-56
2021/08/07 03:57:57;;;;;;;1.03;0.90;;;;;23.20;99332.00;;;;2058226;28;20689;-57
2021/08/07 03:58:57;;;;;;;1.20;0.90;;;;;23.20;99328.00;;;;2055729;28;20220;-57
2021/08/07 03:59:58;;;;;;;1.60;1.10;;;;;23.20;99331.00;;;;2057651;28;20219;-58
2021/08/07 04:00:58;;;;;;;1.10;0.90;;;;;23.10;99336.00;;;;2054811;28;20243;-57
2021/08/07 04:01:58;;;;;;;1.00;0.80;;;;;23.20;99335.00;;;;2057253;28;20786;-57
2021/08/07 04:02:59;;;;;;;1.07;0.87;;;;;23.10;99337.00;;;;2055720;28;20215;-56
2021/08/07 04:04:00;;;;;;;2.03;0.90;;;;;23.20;99333.00;;;;2061871;28;20211;-57
2021/08/07 04:05:00;;;;;;;1.20;0.80;;;;;23.10;99338.00;;;;2062059;28;20306;-56
2021/08/07 04:06:00;;;;;;;1.20;0.90;;;;;23.10;99330.00;;;;2057321;28;20219;-58
2021/08/07 04:07:01;;;;;;;1.07;0.90;;;;;23.10;99330.00;;;;2055991;28;20219;-59
2021/08/07 04:08:06;;;;;;;0.93;0.83;;;;;23.10;99329.00;;;;2062956;28;20732;-57
2021/08/07 04:09:06;;;;;;;1.00;0.90;;;;;23.10;99333.00;;;;2066638;28;20226;-57
2021/08/07 04:10:07;;;;;;;1.20;0.87;;;;;23.20;99329.00;;;;2068966;28;20314;-58
2021/08/07 04:11:07;;;;;;;0.80;0.70;;;;;23.20;99328.00;;;;2063245;28;20691;-55
2021/08/07 04:12:08;;;;;;;1.37;0.80;;;;;23.20;99321.00;;;;2066453;28;20462;-57
2021/08/07 04:13:08;;;;;;;0.70;0.67;;;;;23.10;99326.00;;;;2064956;28;20215;-57
2021/08/07 04:14:09;;;;;;;1.73;0.90;;;;;23.10;99323.00;;;;2064369;28;20215;-57
2021/08/07 04:15:10;;;;;;;1.03;0.70;;;;;23.10;99323.00;;;;2066752;28;20601;-57
2021/08/07 04:16:10;;;;;;;2.00;1.13;;;;;23.10;99321.00;;;;2065035;28;20326;-56
2021/08/07 04:17:11;;;;;;;1.20;1.00;;;;;23.10;99319.00;;;;2064187;28;20462;-56
2021/08/07 04:18:11;;;;;;;1.48;1.08;;;;;23.10;99325.00;;;;2060464;28;20329;-57
2021/08/07 04:19:12;;;;;;;1.00;0.90;;;;;23.10;99322.00;;;;2061813;28;20628;-55
2021/08/07 04:20:12;;;;;;;1.10;1.00;;;;;23.10;99324.00;;;;2055342;28;20223;-56
2021/08/07 04:21:12;;;;;;;1.17;1.00;;;;;23.10;99319.00;;;;2057091;28;20231;-57
2021/08/07 04:22:13;;;;;;;1.63;1.00;;;;;23.10;99323.00;;;;2059293;28;20215;-57
2021/08/07 04:23:13;;;;;;;1.00;0.90;;;;;23.10;99319.00;;;;2054773;28;20697;-56
2021/08/07 04:24:14;;;;;;;1.17;0.83;;;;;23.10;99323.00;;;;2059875;28;20570;-55
2021/08/07 04:25:14;;;;;;;1.80;1.00;;;;;23.10;99316.00;;;;2059293;28;20254;-55
2021/08/07 04:26:15;;;;;;;2.17;0.90;;;;;23.10;99313.00;;;;2057442;28;20465;-54
2021/08/07 04:27:15;;;;;;;0.90;0.80;;;;;23.10;99311.00;;;;2062346;28;20223;-57
2021/08/07 04:28:16;;;;;;;1.67;0.97;;;;;23.10;99319.00;;;;2057587;28;20676;-56
2021/08/07 04:29:16;;;;;;;1.70;0.83;;;;;23.10;99310.00;;;;2055817;28;20246;-57
2021/08/07 04:30:17;;;;;;;1.50;0.90;;;;;23.10;99308.00;;;;2054175;28;20676;-57
2021/08/07 04:31:17;;;;;;;1.80;1.20;;;;;23.10;99315.00;;;;2058223;28;20676;-57
2021/08/07 04:32:18;;;;;;;2.00;0.93;;;;;23.10;99309.00;;;;2057367;28;20306;-57
2021/08/07 04:33:18;;;;;;;2.50;1.03;;;;;23.20;99315.00;;;;2060854;28;20206;-57
2021/08/07 04:34:18;;;;;;;1.57;0.90;;;;;23.10;99311.00;;;;2059093;28;20221;-55
2021/08/07 04:35:19;;;;;;;1.20;0.80;;;;;23.10;99311.00;;;;2055629;28;20692;-57
2021/08/07 04:36:19;;;;;;;1.27;0.97;;;;;23.10;99305.00;;;;2057343;28;20577;-57
2021/08/07 04:37:19;;;;;;;1.10;0.80;;;;;23.10;99308.00;;;;2066889;28;20215;-58
2021/08/07 04:38:20;;;;;;;1.00;0.87;;;;;23.10;99310.00;;;;2065531;28;20252;-58
2021/08/07 04:39:20;;;;;;;1.07;0.80;;;;;23.10;99315.00;;;;2062977;28;20233;-58
2021/08/07 04:40:21;;;;;;;1.50;0.90;;;;;23.10;99313.00;;;;2065631;28;20215;-55
2021/08/07 04:41:21;;;;;;;1.43;0.70;;;;;23.10;99315.00;;;;2060284;28;20218;-58
2021/08/07 04:42:22;;;;;;;1.50;0.93;;;;;23.10;99312.00;;;;2054742;28;20451;-57
2021/08/07 04:43:22;;;;;;;1.87;1.17;;;;;23.10;99315.00;;;;2057012;28;20221;-58
2021/08/07 04:44:22;;;;;;;1.30;0.70;;;;;23.10;99298.00;;;;2054811;28;20226;-55
2021/08/07 04:45:23;;;;;;;2.27;0.80;;;;;23.10;99306.00;;;;2057683;28;20305;-56
2021/08/07 04:46:23;;;;;;;1.77;1.00;;;;;23.10;99304.00;;;;2065822;28;20280;-59
2021/08/07 04:47:24;;;;;;;1.27;0.80;;;;;23.10;99299.00;;;;2065324;28;20214;-57
2021/08/07 04:48:24;;;;;;;1.00;0.83;;;;;23.10;99295.00;;;;2062659;28;20302;-58
2021/08/07 04:49:24;;;;;;;1.57;1.03;;;;;23.10;99304.00;;;;2065958;28;20750;-56
2021/08/07 04:50:29;;;;;;;1.40;0.90;;;;;23.10;99304.00;;;;2065737;28;20638;-54
2021/08/07 04:51:29;;;;;;;1.27;0.88;;;;;23.10;99306.00;;;;2066607;28;20210;-55
2021/08/07 04:52:30;;;;;;;1.90;0.73;;;;;23.10;99297.00;;;;2061734;28;20215;-56
2021/08/07 04:53:30;;;;;;;1.60;1.00;;;;;23.10;99297.00;;;;2054506;28;20406;-57
2021/08/07 04:54:30;;;;;;;2.00;1.00;;;;;23.10;99289.00;;;;2061920;28;20356;-57
2021/08/07 04:55:31;;;;;;;1.13;1.03;;;;;23.10;99307.00;;;;2058953;28;20215;-55
2021/08/07 04:56:31;;;;;;;1.67;0.90;;;;;23.10;99299.00;;;;2065880;28;20578;-55
2021/08/07 04:57:32;;;;;;;0.90;0.77;;;;;23.10;99306.00;;;;2064552;28;20276;-57
2021/08/07 04:58:32;;;;;;;2.10;0.90;;;;;23.10;99306.00;;;;2063050;28;20211;-58
2021/08/07 04:59:32;;;;;;;2.20;1.00;;;;;23.10;99304.00;;;;2063428;28;20207;-57
2021/08/07 05:00:33;;;;;;;2.13;0.90;;;;;23.10;99304.00;;;;2066371;28;20221;-56
2021/08/07 05:01:33;;;;;;;1.10;0.80;;;;;23.10;99298.00;;;;2063052;28;20218;-57
2021/08/07 05:02:33;;;;;;;1.07;0.83;;;;;23.10;99306.00;;;;2067080;28;20234;-55
2021/08/07 05:03:34;;;;;;;1.00;0.90;;;;;23.10;99306.00;;;;2063755;28;20217;-57
2021/08/07 05:04:35;;;;;;;1.17;0.97;;;;;23.10;99306.00;;;;2068079;28;20578;-57
2021/08/07 05:05:35;;;;;;;1.23;1.00;;;;;23.10;99311.00;;;;2064353;28;20221;-58
2021/08/07 05:06:35;;;;;;;1.23;0.90;;;;;23.10;99311.00;;;;2063647;28;20461;-56
2021/08/07 05:07:36;;;;;;;1.77;0.87;;;;;23.10;99311.00;;;;2064073;28;20214;-57
2021/08/07 05:08:37;;;;;;;1.33;0.90;;;;;23.10;99311.00;;;;2064073;28;20214;-57